sensor_id;sensor_type;location;lat;lon;timestamp;P1;durP1;ratioP1;P2;durP2;ratioP2
29006;SDS011;16104;48.642;9.008;2023-03-08T00:03:59;21.98;;;9.77;;
29006;SDS011;16104;48.642;9.008;2023-03-08T00:08:56;19.98;;;9.98;;
29006;SDS011;16104;48.642;9.008;2023-03-08T00:13:52;13.82;;;9.02;;
29006;SDS011;16104;48.642;9.008;2023-03-08T00:18:49;18.70;;;10.15;;
29006;SDS011;16104;48.642;9.008;2023-03-08T00:23:44;17.25;;;9.40;;
29006;SDS011;16104;48.642;9.008;2023-03-08T00:28:40;20.40;;;9.80;;
29006;SDS011;16104;48.642;9.008;2023-03-08T00:33:36;14.70;;;9.43;;
29006;SDS011;16104;48.642;9.008;2023-03-08T00:38:32;14.45;;;8.93;;
29006;SDS011;16104;48.642;9.008;2023-03-08T00:43:29;15.48;;;9.02;;
29006;SDS011;16104;48.642;9.008;2023-03-08T00:48:25;17.67;;;9.57;;
29006;SDS011;16104;48.642;9.008;2023-03-08T00:53:20;17.30;;;9.63;;
29006;SDS011;16104;48.642;9.008;2023-03-08T00:58:16;18.27;;;9.65;;
29006;SDS011;16104;48.642;9.008;2023-03-08T02:04:16;17.13;;;9.70;;
29006;SDS011;16104;48.642;9.008;2023-03-08T02:09:12;15.80;;;9.50;;
29006;SDS011;16104;48.642;9.008;2023-03-08T02:14:08;17.30;;;9.75;;
29006;SDS011;16104;48.642;9.008;2023-03-08T03:00:41;15.32;;;9.23;;
29006;SDS011;16104;48.642;9.008;2023-03-08T03:05:43;12.73;;;8.07;;
29006;SDS011;16104;48.642;9.008;2023-03-08T03:10:39;13.88;;;8.02;;
29006;SDS011;16104;48.642;9.008;2023-03-08T04:01:25;14.18;;;7.80;;
29006;SDS011;16104;48.642;9.008;2023-03-08T04:06:23;16.10;;;8.80;;
29006;SDS011;16104;48.642;9.008;2023-03-08T04:11:22;13.75;;;9.05;;
29006;SDS011;16104;48.642;9.008;2023-03-08T04:16:21;12.02;;;6.18;;
29006;SDS011;16104;48.642;9.008;2023-03-08T04:21:21;12.77;;;7.30;;
29006;SDS011;16104;48.642;9.008;2023-03-08T04:26:17;17.20;;;9.48;;
29006;SDS011;16104;48.642;9.008;2023-03-08T04:31:21;15.73;;;9.10;;
29006;SDS011;16104;48.642;9.008;2023-03-08T04:36:19;16.23;;;8.88;;
29006;SDS011;16104;48.642;9.008;2023-03-08T04:41:15;14.52;;;8.77;;
29006;SDS011;16104;48.642;9.008;2023-03-08T04:46:11;18.02;;;9.15;;
29006;SDS011;16104;48.642;9.008;2023-03-08T04:51:07;15.52;;;9.07;;
29006;SDS011;16104;48.642;9.008;2023-03-08T04:56:05;15.07;;;8.75;;
29006;SDS011;16104;48.642;9.008;2023-03-08T05:01:12;17.75;;;9.38;;
29006;SDS011;16104;48.642;9.008;2023-03-08T05:06:12;16.63;;;9.57;;
29006;SDS011;16104;48.642;9.008;2023-03-08T05:11:13;15.57;;;9.63;;
29006;SDS011;16104;48.642;9.008;2023-03-08T05:16:12;19.90;;;10.40;;
29006;SDS011;16104;48.642;9.008;2023-03-08T05:21:12;20.10;;;10.55;;
29006;SDS011;16104;48.642;9.008;2023-03-08T05:26:12;19.52;;;9.40;;
29006;SDS011;16104;48.642;9.008;2023-03-08T05:31:11;16.77;;;10.23;;
29006;SDS011;16104;48.642;9.008;2023-03-08T05:36:09;17.83;;;10.63;;
29006;SDS011;16104;48.642;9.008;2023-03-08T05:41:06;16.27;;;10.35;;
29006;SDS011;16104;48.642;9.008;2023-03-08T05:46:04;18.92;;;10.90;;
29006;SDS011;16104;48.642;9.008;2023-03-08T05:51:04;20.27;;;11.25;;
29006;SDS011;16104;48.642;9.008;2023-03-08T05:56:20;21.70;;;11.32;;
29006;SDS011;16104;48.642;9.008;2023-03-08T06:01:18;19.88;;;11.43;;
29006;SDS011;16104;48.642;9.008;2023-03-08T06:06:18;20.20;;;11.93;;
29006;SDS011;16104;48.642;9.008;2023-03-08T06:11:14;41.53;;;17.33;;
29006;SDS011;16104;48.642;9.008;2023-03-08T06:16:10;34.88;;;17.13;;
29006;SDS011;16104;48.642;9.008;2023-03-08T06:21:07;21.35;;;12.05;;
29006;SDS011;16104;48.642;9.008;2023-03-08T06:26:03;21.10;;;13.15;;
29006;SDS011;16104;48.642;9.008;2023-03-08T06:30:59;23.20;;;12.77;;
29006;SDS011;16104;48.642;9.008;2023-03-08T06:40:52;21.65;;;12.57;;
29006;SDS011;16104;48.642;9.008;2023-03-08T06:45:48;24.83;;;14.27;;
29006;SDS011;16104;48.642;9.008;2023-03-08T06:50:43;37.33;;;17.25;;
29006;SDS011;16104;48.642;9.008;2023-03-08T06:55:39;33.65;;;18.95;;
29006;SDS011;16104;48.642;9.008;2023-03-08T07:00:35;25.73;;;14.65;;
29006;SDS011;16104;48.642;9.008;2023-03-08T07:05:31;23.33;;;13.40;;
29006;SDS011;16104;48.642;9.008;2023-03-08T07:10:27;22.63;;;13.07;;
29006;SDS011;16104;48.642;9.008;2023-03-08T07:15:23;22.70;;;12.65;;
29006;SDS011;16104;48.642;9.008;2023-03-08T07:20:19;23.63;;;12.77;;
29006;SDS011;16104;48.642;9.008;2023-03-08T07:25:16;23.00;;;12.40;;
29006;SDS011;16104;48.642;9.008;2023-03-08T07:30:14;19.13;;;11.07;;
29006;SDS011;16104;48.642;9.008;2023-03-08T07:35:11;17.63;;;10.20;;
29006;SDS011;16104;48.642;9.008;2023-03-08T07:40:08;20.67;;;10.82;;
29006;SDS011;16104;48.642;9.008;2023-03-08T07:45:05;20.08;;;10.95;;
29006;SDS011;16104;48.642;9.008;2023-03-08T07:50:01;18.45;;;10.52;;
29006;SDS011;16104;48.642;9.008;2023-03-08T07:54:57;17.58;;;10.40;;
29006;SDS011;16104;48.642;9.008;2023-03-08T07:59:52;19.75;;;10.52;;
29006;SDS011;16104;48.642;9.008;2023-03-08T08:04:48;20.48;;;11.05;;
29006;SDS011;16104;48.642;9.008;2023-03-08T08:09:44;21.13;;;12.48;;
29006;SDS011;16104;48.642;9.008;2023-03-08T08:14:40;16.80;;;10.68;;
29006;SDS011;16104;48.642;9.008;2023-03-08T08:19:35;19.00;;;13.07;;
29006;SDS011;16104;48.642;9.008;2023-03-08T08:24:32;20.50;;;11.45;;
29006;SDS011;16104;48.642;9.008;2023-03-08T08:29:28;22.20;;;14.70;;
29006;SDS011;16104;48.642;9.008;2023-03-08T08:34:24;23.38;;;14.95;;
29006;SDS011;16104;48.642;9.008;2023-03-08T08:39:19;23.60;;;12.77;;
29006;SDS011;16104;48.642;9.008;2023-03-08T08:44:15;20.60;;;12.20;;
29006;SDS011;16104;48.642;9.008;2023-03-08T08:49:12;21.77;;;12.38;;
29006;SDS011;16104;48.642;9.008;2023-03-08T08:54:07;17.35;;;11.18;;
29006;SDS011;16104;48.642;9.008;2023-03-08T08:59:03;18.88;;;11.15;;
29006;SDS011;16104;48.642;9.008;2023-03-08T09:03:58;19.48;;;11.68;;
29006;SDS011;16104;48.642;9.008;2023-03-08T09:08:55;17.02;;;11.15;;
29006;SDS011;16104;48.642;9.008;2023-03-08T09:13:52;16.17;;;10.10;;
29006;SDS011;16104;48.642;9.008;2023-03-08T09:18:49;16.35;;;9.82;;
29006;SDS011;16104;48.642;9.008;2023-03-08T09:23:45;17.35;;;10.82;;
29006;SDS011;16104;48.642;9.008;2023-03-08T09:28:40;15.88;;;10.10;;
29006;SDS011;16104;48.642;9.008;2023-03-08T09:33:43;16.65;;;9.88;;
29006;SDS011;16104;48.642;9.008;2023-03-08T09:38:40;19.92;;;10.73;;
29006;SDS011;16104;48.642;9.008;2023-03-08T09:43:41;15.85;;;9.85;;
29006;SDS011;16104;48.642;9.008;2023-03-08T09:48:41;15.10;;;8.77;;
29006;SDS011;16104;48.642;9.008;2023-03-08T09:53:52;15.20;;;9.02;;
29006;SDS011;16104;48.642;9.008;2023-03-08T10:09:26;14.10;;;8.45;;
29006;SDS011;16104;48.642;9.008;2023-03-08T10:14:34;12.90;;;8.25;;
29006;SDS011;16104;48.642;9.008;2023-03-08T10:20:06;13.27;;;7.38;;
29006;SDS011;16104;48.642;9.008;2023-03-08T10:25:01;13.00;;;7.55;;
29006;SDS011;16104;48.642;9.008;2023-03-08T10:30:12;9.65;;;6.50;;
29006;SDS011;16104;48.642;9.008;2023-03-08T10:35:10;11.68;;;6.82;;
29006;SDS011;16104;48.642;9.008;2023-03-08T10:40:08;12.65;;;6.35;;
29006;SDS011;16104;48.642;9.008;2023-03-08T10:45:13;8.57;;;4.68;;
29006;SDS011;16104;48.642;9.008;2023-03-08T10:50:18;5.25;;;3.45;;
29006;SDS011;16104;48.642;9.008;2023-03-08T10:55:18;3.97;;;2.78;;
29006;SDS011;16104;48.642;9.008;2023-03-08T11:00:31;2.85;;;1.73;;
29006;SDS011;16104;48.642;9.008;2023-03-08T11:05:27;2.95;;;1.05;;
29006;SDS011;16104;48.642;9.008;2023-03-08T11:10:26;2.25;;;1.20;;
29006;SDS011;16104;48.642;9.008;2023-03-08T11:15:23;1.55;;;0.88;;
29006;SDS011;16104;48.642;9.008;2023-03-08T11:20:22;1.98;;;0.82;;
29006;SDS011;16104;48.642;9.008;2023-03-08T11:31:02;1.17;;;0.82;;
29006;SDS011;16104;48.642;9.008;2023-03-08T11:36:23;2.00;;;0.80;;
29006;SDS011;16104;48.642;9.008;2023-03-08T11:41:29;6.65;;;1.10;;
29006;SDS011;16104;48.642;9.008;2023-03-08T11:57:18;2.88;;;0.90;;
29006;SDS011;16104;48.642;9.008;2023-03-08T12:02:17;1.70;;;0.82;;
29006;SDS011;16104;48.642;9.008;2023-03-08T12:07:17;0.95;;;0.80;;
29006;SDS011;16104;48.642;9.008;2023-03-08T12:12:34;0.93;;;0.70;;
29006;SDS011;16104;48.642;9.008;2023-03-08T12:17:35;1.10;;;0.77;;
29006;SDS011;16104;48.642;9.008;2023-03-08T12:27:41;1.67;;;0.88;;
29006;SDS011;16104;48.642;9.008;2023-03-08T12:32:38;4.25;;;0.80;;
29006;SDS011;16104;48.642;9.008;2023-03-08T12:37:36;3.08;;;0.90;;
29006;SDS011;16104;48.642;9.008;2023-03-08T12:42:33;0.80;;;0.70;;
29006;SDS011;16104;48.642;9.008;2023-03-08T12:47:33;4.05;;;0.82;;
29006;SDS011;16104;48.642;9.008;2023-03-08T12:52:31;1.70;;;0.70;;
29006;SDS011;16104;48.642;9.008;2023-03-08T12:57:30;1.52;;;0.60;;
29006;SDS011;16104;48.642;9.008;2023-03-08T13:02:36;2.95;;;0.90;;
29006;SDS011;16104;48.642;9.008;2023-03-08T13:07:36;0.93;;;0.80;;
29006;SDS011;16104;48.642;9.008;2023-03-08T13:23:10;3.15;;;0.68;;
29006;SDS011;16104;48.642;9.008;2023-03-08T13:28:18;0.80;;;0.80;;
29006;SDS011;16104;48.642;9.008;2023-03-08T13:33:28;1.52;;;0.70;;
29006;SDS011;16104;48.642;9.008;2023-03-08T13:38:28;1.03;;;0.80;;
29006;SDS011;16104;48.642;9.008;2023-03-08T13:43:27;2.55;;;0.73;;
29006;SDS011;16104;48.642;9.008;2023-03-08T13:48:25;3.53;;;0.95;;
29006;SDS011;16104;48.642;9.008;2023-03-08T13:53:26;2.30;;;0.75;;
29006;SDS011;16104;48.642;9.008;2023-03-08T13:58:58;1.30;;;0.50;;
29006;SDS011;16104;48.642;9.008;2023-03-08T14:03:48;2.50;;;0.50;;
29006;SDS011;16104;48.642;9.008;2023-03-08T14:08:45;3.78;;;0.40;;
29006;SDS011;16104;48.642;9.008;2023-03-08T14:13:43;0.98;;;0.30;;
29006;SDS011;16104;48.642;9.008;2023-03-08T14:18:41;0.30;;;0.30;;
29006;SDS011;16104;48.642;9.008;2023-03-08T14:23:38;0.45;;;0.40;;
29006;SDS011;16104;48.642;9.008;2023-03-08T14:28:37;1.38;;;0.40;;
29006;SDS011;16104;48.642;9.008;2023-03-08T14:33:34;0.73;;;0.30;;
29006;SDS011;16104;48.642;9.008;2023-03-08T14:38:30;1.35;;;0.50;;
29006;SDS011;16104;48.642;9.008;2023-03-08T14:43:28;0.70;;;0.50;;
29006;SDS011;16104;48.642;9.008;2023-03-08T14:48:33;2.15;;;0.70;;
29006;SDS011;16104;48.642;9.008;2023-03-08T14:53:31;0.98;;;0.52;;
29006;SDS011;16104;48.642;9.008;2023-03-08T14:58:30;0.60;;;0.60;;
29006;SDS011;16104;48.642;9.008;2023-03-08T15:03:27;1.50;;;0.60;;
29006;SDS011;16104;48.642;9.008;2023-03-08T15:08:24;0.70;;;0.57;;
29006;SDS011;16104;48.642;9.008;2023-03-08T15:13:21;1.17;;;0.50;;
29006;SDS011;16104;48.642;9.008;2023-03-08T15:18:17;1.80;;;0.47;;
29006;SDS011;16104;48.642;9.008;2023-03-08T15:23:34;1.98;;;0.73;;
29006;SDS011;16104;48.642;9.008;2023-03-08T15:28:30;2.70;;;0.55;;
29006;SDS011;16104;48.642;9.008;2023-03-08T15:33:25;1.33;;;0.65;;
29006;SDS011;16104;48.642;9.008;2023-03-08T15:38:21;0.88;;;0.60;;
29006;SDS011;16104;48.642;9.008;2023-03-08T15:43:18;2.95;;;0.52;;
29006;SDS011;16104;48.642;9.008;2023-03-08T15:48:15;1.90;;;0.47;;
29006;SDS011;16104;48.642;9.008;2023-03-08T15:53:12;2.22;;;0.60;;
29006;SDS011;16104;48.642;9.008;2023-03-08T15:58:07;3.10;;;0.60;;
29006;SDS011;16104;48.642;9.008;2023-03-08T16:03:03;0.65;;;0.57;;
29006;SDS011;16104;48.642;9.008;2023-03-08T16:07:59;0.82;;;0.50;;
29006;SDS011;16104;48.642;9.008;2023-03-08T16:12:56;0.80;;;0.50;;
29006;SDS011;16104;48.642;9.008;2023-03-08T16:17:52;1.75;;;0.47;;
29006;SDS011;16104;48.642;9.008;2023-03-08T16:22:47;0.57;;;0.40;;
29006;SDS011;16104;48.642;9.008;2023-03-08T16:27:43;0.60;;;0.50;;
29006;SDS011;16104;48.642;9.008;2023-03-08T16:32:39;0.70;;;0.40;;
29006;SDS011;16104;48.642;9.008;2023-03-08T16:37:34;1.00;;;0.65;;
29006;SDS011;16104;48.642;9.008;2023-03-08T16:42:30;0.35;;;0.35;;
29006;SDS011;16104;48.642;9.008;2023-03-08T16:47:25;0.60;;;0.60;;
29006;SDS011;16104;48.642;9.008;2023-03-08T16:52:26;0.60;;;0.50;;
29006;SDS011;16104;48.642;9.008;2023-03-08T16:57:22;1.55;;;0.55;;
29006;SDS011;16104;48.642;9.008;2023-03-08T17:02:18;1.23;;;0.77;;
29006;SDS011;16104;48.642;9.008;2023-03-08T17:07:15;1.20;;;0.90;;
29006;SDS011;16104;48.642;9.008;2023-03-08T17:12:11;0.50;;;0.50;;
29006;SDS011;16104;48.642;9.008;2023-03-08T17:17:07;1.25;;;0.73;;
29006;SDS011;16104;48.642;9.008;2023-03-08T17:22:04;1.27;;;0.70;;
29006;SDS011;16104;48.642;9.008;2023-03-08T17:26:59;1.45;;;0.70;;
29006;SDS011;16104;48.642;9.008;2023-03-08T17:31:55;2.70;;;1.50;;
29006;SDS011;16104;48.642;9.008;2023-03-08T17:36:50;1.77;;;1.10;;
29006;SDS011;16104;48.642;9.008;2023-03-08T17:41:46;1.08;;;0.90;;
29006;SDS011;16104;48.642;9.008;2023-03-08T17:46:42;1.40;;;0.90;;
29006;SDS011;16104;48.642;9.008;2023-03-08T17:51:37;1.98;;;0.95;;
29006;SDS011;16104;48.642;9.008;2023-03-08T17:56:33;2.17;;;1.00;;
29006;SDS011;16104;48.642;9.008;2023-03-08T18:01:30;1.50;;;1.10;;
29006;SDS011;16104;48.642;9.008;2023-03-08T18:06:30;1.73;;;1.17;;
29006;SDS011;16104;48.642;9.008;2023-03-08T18:11:33;2.15;;;1.15;;
29006;SDS011;16104;48.642;9.008;2023-03-08T18:16:31;1.70;;;1.08;;
29006;SDS011;16104;48.642;9.008;2023-03-08T18:21:29;4.18;;;1.00;;
29006;SDS011;16104;48.642;9.008;2023-03-08T18:26:26;1.77;;;1.40;;
29006;SDS011;16104;48.642;9.008;2023-03-08T18:31:22;1.55;;;1.10;;
29006;SDS011;16104;48.642;9.008;2023-03-08T18:36:19;2.00;;;0.90;;
29006;SDS011;16104;48.642;9.008;2023-03-08T18:41:21;1.52;;;0.90;;
29006;SDS011;16104;48.642;9.008;2023-03-08T18:46:19;4.22;;;0.70;;
29006;SDS011;16104;48.642;9.008;2023-03-08T18:51:22;0.85;;;0.80;;
29006;SDS011;16104;48.642;9.008;2023-03-08T18:56:18;1.23;;;0.80;;
29006;SDS011;16104;48.642;9.008;2023-03-08T19:01:14;1.30;;;0.70;;
29006;SDS011;16104;48.642;9.008;2023-03-08T19:06:10;1.10;;;0.70;;
29006;SDS011;16104;48.642;9.008;2023-03-08T19:11:10;1.08;;;0.73;;
29006;SDS011;16104;48.642;9.008;2023-03-08T19:16:21;1.40;;;0.77;;
29006;SDS011;16104;48.642;9.008;2023-03-08T19:21:17;1.92;;;1.33;;
29006;SDS011;16104;48.642;9.008;2023-03-08T19:26:21;2.03;;;1.00;;
29006;SDS011;16104;48.642;9.008;2023-03-08T19:31:31;1.75;;;1.10;;
29006;SDS011;16104;48.642;9.008;2023-03-08T19:36:28;1.38;;;1.20;;
29006;SDS011;16104;48.642;9.008;2023-03-08T19:41:24;3.25;;;1.10;;
29006;SDS011;16104;48.642;9.008;2023-03-08T19:46:19;3.67;;;1.35;;
29006;SDS011;16104;48.642;9.008;2023-03-08T19:51:15;2.58;;;1.50;;
29006;SDS011;16104;48.642;9.008;2023-03-08T19:56:13;5.40;;;1.80;;
29006;SDS011;16104;48.642;9.008;2023-03-08T20:01:13;2.10;;;1.35;;
29006;SDS011;16104;48.642;9.008;2023-03-08T20:06:11;2.63;;;1.10;;
29006;SDS011;16104;48.642;9.008;2023-03-08T20:11:14;2.00;;;0.98;;
29006;SDS011;16104;48.642;9.008;2023-03-08T20:16:10;1.67;;;1.10;;
29006;SDS011;16104;48.642;9.008;2023-03-08T20:21:06;2.38;;;0.77;;
29006;SDS011;16104;48.642;9.008;2023-03-08T20:26:02;1.05;;;0.88;;
29006;SDS011;16104;48.642;9.008;2023-03-08T20:30:58;1.60;;;0.88;;
29006;SDS011;16104;48.642;9.008;2023-03-08T20:35:59;2.15;;;1.08;;
29006;SDS011;16104;48.642;9.008;2023-03-08T20:41:05;1.45;;;0.90;;
29006;SDS011;16104;48.642;9.008;2023-03-08T20:46:06;0.82;;;0.60;;
29006;SDS011;16104;48.642;9.008;2023-03-08T20:51:04;1.35;;;0.82;;
29006;SDS011;16104;48.642;9.008;2023-03-08T20:56:08;2.65;;;0.90;;
29006;SDS011;16104;48.642;9.008;2023-03-08T21:01:10;1.98;;;0.80;;
29006;SDS011;16104;48.642;9.008;2023-03-08T21:06:14;2.60;;;0.70;;
29006;SDS011;16104;48.642;9.008;2023-03-08T21:11:12;0.80;;;0.65;;
29006;SDS011;16104;48.642;9.008;2023-03-08T21:16:12;3.13;;;0.70;;
29006;SDS011;16104;48.642;9.008;2023-03-08T21:21:15;1.38;;;0.90;;
29006;SDS011;16104;48.642;9.008;2023-03-08T21:26:19;1.58;;;0.88;;
29006;SDS011;16104;48.642;9.008;2023-03-08T21:31:15;1.88;;;0.60;;
29006;SDS011;16104;48.642;9.008;2023-03-08T21:36:13;3.30;;;0.80;;
29006;SDS011;16104;48.642;9.008;2023-03-08T21:41:20;1.30;;;0.82;;
29006;SDS011;16104;48.642;9.008;2023-03-08T21:46:17;1.00;;;0.82;;
29006;SDS011;16104;48.642;9.008;2023-03-08T21:51:13;1.75;;;1.05;;
29006;SDS011;16104;48.642;9.008;2023-03-08T21:56:09;1.42;;;1.00;;
29006;SDS011;16104;48.642;9.008;2023-03-08T22:01:14;1.95;;;0.95;;
29006;SDS011;16104;48.642;9.008;2023-03-08T22:06:12;1.95;;;1.13;;
29006;SDS011;16104;48.642;9.008;2023-03-08T22:11:07;1.05;;;0.90;;
29006;SDS011;16104;48.642;9.008;2023-03-08T22:21:01;16.33;;;12.20;;
29006;SDS011;16104;48.642;9.008;2023-03-08T22:25:57;20.80;;;17.20;;
29006;SDS011;16104;48.642;9.008;2023-03-08T22:30:52;5.22;;;4.00;;
29006;SDS011;16104;48.642;9.008;2023-03-08T22:35:48;5.53;;;1.85;;
29006;SDS011;16104;48.642;9.008;2023-03-08T22:40:43;5.55;;;1.90;;
29006;SDS011;16104;48.642;9.008;2023-03-08T22:45:39;4.95;;;2.05;;
29006;SDS011;16104;48.642;9.008;2023-03-08T22:50:35;3.97;;;1.58;;
29006;SDS011;16104;48.642;9.008;2023-03-08T22:55:30;6.50;;;2.50;;
29006;SDS011;16104;48.642;9.008;2023-03-08T23:00:26;4.38;;;1.45;;
29006;SDS011;16104;48.642;9.008;2023-03-08T23:05:22;6.40;;;1.40;;
29006;SDS011;16104;48.642;9.008;2023-03-08T23:10:18;5.97;;;1.30;;
29006;SDS011;16104;48.642;9.008;2023-03-08T23:15:14;4.30;;;2.08;;
29006;SDS011;16104;48.642;9.008;2023-03-08T23:20:09;2.38;;;1.27;;
29006;SDS011;16104;48.642;9.008;2023-03-08T23:25:06;4.18;;;1.30;;
29006;SDS011;16104;48.642;9.008;2023-03-08T23:30:02;3.17;;;1.45;;
29006;SDS011;16104;48.642;9.008;2023-03-08T23:34:58;6.18;;;1.80;;
29006;SDS011;16104;48.642;9.008;2023-03-08T23:39:54;2.38;;;1.40;;
29006;SDS011;16104;48.642;9.008;2023-03-08T23:44:49;6.15;;;1.55;;
29006;SDS011;16104;48.642;9.008;2023-03-08T23:49:46;3.13;;;0.90;;
29006;SDS011;16104;48.642;9.008;2023-03-08T23:54:42;4.07;;;1.23;;
29006;SDS011;16104;48.642;9.008;2023-03-08T23:59:38;2.13;;;1.10;;
